Time;durP1;ratioP1;P1;durP2;ratioP2;P2;SDS_P1;SDS_P2;PMS_P1;PMS_P2;Temp;Humidity;BMP_temperature;BMP_pressure;BME280_temperature;BME280_humidity;BME280_pressure;Samples;Min_cycle;Max_cycle;Signal;HPM_P1;HPM_P2
2023/01/28 00:04:17;;;;;;;1.58;0.90;;;;;;;;;;10441745;28;21679;-81
2023/01/28 00:09:20;;;;;;;0.82;0.82;;;;;;;;;;10441183;28;20037;-82
2023/01/28 00:14:24;;;;;;;0.98;0.90;;;;;;;;;;10441617;28;20064;-81
2023/01/28 00:19:28;;;;;;;0.88;0.88;;;;;;;;;;10441210;28;20048;-82
2023/01/28 00:24:32;;;;;;;1.52;1.10;;;;;;;;;;10440877;28;20160;-81
2023/01/28 00:29:35;;;;;;;1.15;1.00;;;;;;;;;;10440932;28;20041;-82
2023/01/28 00:34:42;;;;;;;1.20;0.88;;;;;;;;;;10441748;28;20044;-82
2023/01/28 00:39:46;;;;;;;1.05;0.90;;;;;;;;;;10440062;28;20134;-84
2023/01/28 00:44:49;;;;;;;0.65;0.65;;;;;;;;;;10439970;28;20041;-81
2023/01/28 00:49:54;;;;;;;2.45;0.90;;;;;;;;;;10440951;28;20052;-82
2023/01/28 00:54:58;;;;;;;1.38;1.05;;;;;;;;;;10431504;28;20041;-82
2023/01/28 01:00:02;;;;;;;1.10;1.00;;;;;;;;;;10437695;28;20120;-82
2023/01/28 01:05:08;;;;;;;1.05;0.88;;;;;;;;;;10438886;28;20079;-82
2023/01/28 01:10:14;;;;;;;0.95;0.93;;;;;;;;;;10440008;28;20471;-81
2023/01/28 01:15:19;;;;;;;0.90;0.90;;;;;;;;;;10439686;28;20037;-83
2023/01/28 01:20:27;;;;;;;0.73;0.73;;;;;;;;;;10438516;28;20561;-83
2023/01/28 01:25:30;;;;;;;0.90;0.70;;;;;;;;;;10439679;28;20391;-82
2023/01/28 01:30:34;;;;;;;1.90;1.00;;;;;;;;;;10439416;28;20059;-82
2023/01/28 01:35:39;;;;;;;1.05;0.90;;;;;;;;;;10439079;28;20052;-83
2023/01/28 01:40:42;;;;;;;0.65;0.65;;;;;;;;;;10441753;28;20325;-81
2023/01/28 01:45:50;;;;;;;0.70;0.70;;;;;;;;;;10439459;28;20531;-81
2023/01/28 01:50:58;;;;;;;0.80;0.70;;;;;;;;;;10439456;28;20156;-84
2023/01/28 01:56:04;;;;;;;0.52;0.52;;;;;;;;;;10441424;28;20048;-85
2023/01/28 02:01:08;;;;;;;1.15;1.02;;;;;;;;;;10465614;28;20076;-85
2023/01/28 02:06:13;;;;;;;1.33;1.00;;;;;;;;;;10448457;28;20052;-85
2023/01/28 02:11:18;;;;;;;0.90;0.90;;;;;;;;;;10447384;28;20414;-86
2023/01/28 02:16:23;;;;;;;1.23;0.98;;;;;;;;;;10448395;28;20041;-85
2023/01/28 02:21:55;;;;;;;0.68;0.68;;;;;;;;;;10446847;28;20033;-85
2023/01/28 02:27:19;;;;;;;0.75;0.75;;;;;;;;;;10446856;28;20037;-85
2023/01/28 02:32:29;;;;;;;1.38;0.70;;;;;;;;;;10447218;28;20033;-84
2023/01/28 02:37:38;;;;;;;0.80;0.80;;;;;;;;;;10446263;28;20104;-89
2023/01/28 02:42:42;;;;;;;0.80;0.80;;;;;;;;;;10446588;28;20056;-85
2023/01/28 02:47:58;;;;;;;0.90;0.90;;;;;;;;;;10446194;28;20713;-86
2023/01/28 02:58:41;;;;;;;1.13;0.70;;;;;;;;;;10437419;28;20037;-84
2023/01/28 03:03:56;;;;;;;1.05;0.82;;;;;;;;;;10454106;28;20048;-84
2023/01/28 03:09:23;;;;;;;0.73;0.73;;;;;;;;;;10431706;28;20056;-84
2023/01/28 03:41:38;;;;;;;0.75;0.75;;;;;;;;;;10455733;28;20052;-85
2023/01/28 03:46:42;;;;;;;0.80;0.80;;;;;;;;;;10455298;28;20087;-86
2023/01/28 03:51:47;;;;;;;0.80;0.80;;;;;;;;;;10470562;28;20049;-84
2023/01/28 03:56:51;;;;;;;1.88;0.80;;;;;;;;;;10452717;28;20037;-85
2023/01/28 04:01:55;;;;;;;0.85;0.85;;;;;;;;;;10454041;28;20041;-84
2023/01/28 04:07:00;;;;;;;1.30;0.90;;;;;;;;;;10446439;28;20528;-91
2023/01/28 04:12:27;;;;;;;0.60;0.60;;;;;;;;;;10454898;28;20567;-86
2023/01/28 04:17:30;;;;;;;1.98;0.80;;;;;;;;;;10467961;28;20041;-85
2023/01/28 04:22:36;;;;;;;0.75;0.70;;;;;;;;;;10453842;28;20037;-90
2023/01/28 04:27:42;;;;;;;0.93;0.90;;;;;;;;;;10458685;28;20048;-91
2023/01/28 04:32:52;;;;;;;0.70;0.70;;;;;;;;;;10452852;28;20473;-86
2023/01/28 04:38:06;;;;;;;1.02;0.80;;;;;;;;;;10452577;28;20740;-85
2023/01/28 04:43:18;;;;;;;1.20;0.70;;;;;;;;;;10446652;28;20064;-85
2023/01/28 04:48:26;;;;;;;1.10;0.77;;;;;;;;;;10446960;28;20068;-86
2023/01/28 04:53:49;;;;;;;0.73;0.73;;;;;;;;;;10460499;28;20049;-86
2023/01/28 04:59:05;;;;;;;0.80;0.80;;;;;;;;;;10453408;28;20041;-87
2023/01/28 05:04:09;;;;;;;1.05;0.95;;;;;;;;;;10443095;28;20080;-85
2023/01/28 05:09:16;;;;;;;0.70;0.70;;;;;;;;;;10460945;28;20043;-84
2023/01/28 05:14:19;;;;;;;0.85;0.80;;;;;;;;;;10434155;28;20045;-85
2023/01/28 05:19:30;;;;;;;0.95;0.85;;;;;;;;;;10474865;28;20098;-85
2023/01/28 05:24:36;;;;;;;1.42;1.10;;;;;;;;;;10466969;28;20049;-85
2023/01/28 05:29:40;;;;;;;1.42;0.93;;;;;;;;;;10456497;28;20409;-87
2023/01/28 05:34:44;;;;;;;1.02;0.90;;;;;;;;;;10464338;28;20071;-85
2023/01/28 05:39:51;;;;;;;1.30;0.93;;;;;;;;;;10460817;28;20128;-85
2023/01/28 05:44:54;;;;;;;1.05;0.90;;;;;;;;;;10475566;28;20040;-86
2023/01/28 05:50:14;;;;;;;1.10;0.90;;;;;;;;;;10460611;28;20069;-85
2023/01/28 05:55:21;;;;;;;2.90;1.05;;;;;;;;;;10446469;28;20432;-82
2023/01/28 06:00:25;;;;;;;1.20;1.10;;;;;;;;;;10449371;28;20041;-83
2023/01/28 06:05:28;;;;;;;1.40;1.17;;;;;;;;;;10440714;28;20044;-82
2023/01/28 06:10:33;;;;;;;1.10;0.90;;;;;;;;;;10456301;28;20040;-82
2023/01/28 06:15:37;;;;;;;1.20;1.00;;;;;;;;;;10447675;28;20711;-82
2023/01/28 06:21:13;;;;;;;1.45;1.05;;;;;;;;;;10418547;28;20565;-82
2023/01/28 06:26:17;;;;;;;1.77;0.95;;;;;;;;;;10456095;28;20114;-82
2023/01/28 06:31:22;;;;;;;1.45;1.00;;;;;;;;;;10457092;28;20255;-83
2023/01/28 06:36:26;;;;;;;0.90;0.90;;;;;;;;;;10456399;28;20065;-81
2023/01/28 06:41:30;;;;;;;1.17;0.90;;;;;;;;;;10441473;28;20041;-83
2023/01/28 06:46:34;;;;;;;1.20;0.90;;;;;;;;;;10438623;28;20056;-82
2023/01/28 06:51:37;;;;;;;0.80;0.80;;;;;;;;;;10435173;28;20041;-82
2023/01/28 06:56:43;;;;;;;0.82;0.82;;;;;;;;;;10450316;28;20047;-82
2023/01/28 07:01:46;;;;;;;3.28;0.80;;;;;;;;;;10448416;28;20045;-82
2023/01/28 07:06:49;;;;;;;1.02;0.85;;;;;;;;;;10446403;28;20040;-82
2023/01/28 07:11:54;;;;;;;1.25;0.95;;;;;;;;;;10445087;28;20041;-82
2023/01/28 07:16:58;;;;;;;1.05;0.88;;;;;;;;;;10461059;28;20054;-83
2023/01/28 07:22:02;;;;;;;1.10;1.00;;;;;;;;;;10446312;28;20037;-83
2023/01/28 07:27:06;;;;;;;0.63;0.63;;;;;;;;;;10453466;28;20049;-83
2023/01/28 07:32:10;;;;;;;0.70;0.70;;;;;;;;;;10444020;28;20041;-83
2023/01/28 07:37:14;;;;;;;1.00;0.80;;;;;;;;;;10461413;28;20059;-82
2023/01/28 07:42:19;;;;;;;0.75;0.73;;;;;;;;;;10454132;28;20092;-82
2023/01/28 07:47:23;;;;;;;0.60;0.60;;;;;;;;;;10477206;28;20522;-85
2023/01/28 07:52:26;;;;;;;0.55;0.55;;;;;;;;;;10465336;28;20044;-85
2023/01/28 07:57:31;;;;;;;1.27;0.90;;;;;;;;;;10465105;28;20048;-85
2023/01/28 08:02:35;;;;;;;0.68;0.68;;;;;;;;;;10463602;28;20033;-85
2023/01/28 08:07:38;;;;;;;0.82;0.82;;;;;;;;;;10478848;28;20405;-90
2023/01/28 08:12:51;;;;;;;0.82;0.75;;;;;;;;;;10502855;28;20063;-85
2023/01/28 08:17:56;;;;;;;0.82;0.70;;;;;;;;;;10453000;28;20135;-84
2023/01/28 08:23:07;;;;;;;0.68;0.68;;;;;;;;;;10443944;28;20493;-86
2023/01/28 08:28:13;;;;;;;0.80;0.80;;;;;;;;;;10435912;28;20132;-84
2023/01/28 08:33:18;;;;;;;0.90;0.90;;;;;;;;;;10429229;28;20046;-83
2023/01/28 08:38:22;;;;;;;0.77;0.77;;;;;;;;;;10440068;28;20422;-84
2023/01/28 08:43:27;;;;;;;1.20;0.88;;;;;;;;;;10448736;28;20072;-85
2023/01/28 08:48:30;;;;;;;0.80;0.77;;;;;;;;;;10455913;28;20063;-83
2023/01/28 08:53:34;;;;;;;0.85;0.85;;;;;;;;;;10462743;28;20044;-82
2023/01/28 08:58:39;;;;;;;0.80;0.80;;;;;;;;;;10475422;28;20123;-84
2023/01/28 09:03:43;;;;;;;0.50;0.50;;;;;;;;;;10462219;28;20123;-82
2023/01/28 09:08:46;;;;;;;0.63;0.63;;;;;;;;;;10471982;28;20047;-84
2023/01/28 09:13:51;;;;;;;0.52;0.52;;;;;;;;;;10467459;28;20051;-83
2023/01/28 09:52:43;;;;;;;0.60;0.60;;;;;;;;;;11423124;23;20043;-87
2023/01/28 09:57:54;;;;;;;0.50;0.50;;;;;;;;;;10181950;29;20051;-89
2023/01/28 10:03:26;;;;;;;0.60;0.50;;;;;;;;;;10167118;29;20051;-91
2023/01/28 10:08:45;;;;;;;0.70;0.70;;;;;;;;;;10173746;29;20588;-92
2023/01/28 10:13:55;;;;;;;2.45;0.52;;;;;;;;;;10188516;29;20047;-88
2023/01/28 10:19:04;;;;;;;0.50;0.50;;;;;;;;;;10160447;29;20484;-92
2023/01/28 10:24:18;;;;;;;0.50;0.50;;;;;;;;;;10159075;29;20365;-85
2023/01/28 10:29:24;;;;;;;1.33;1.10;;;;;;;;;;10160087;29;20047;-85
2023/01/28 10:34:28;;;;;;;2.10;1.20;;;;;;;;;;10167704;29;20094;-84
2023/01/28 10:39:34;;;;;;;1.50;1.00;;;;;;;;;;10189045;28;20050;-85
2023/01/28 10:44:40;;;;;;;0.90;0.60;;;;;;;;;;10166710;29;20054;-86
2023/01/28 10:49:49;;;;;;;0.95;0.57;;;;;;;;;;10166175;29;20044;-85
2023/01/28 10:55:02;;;;;;;0.57;0.55;;;;;;;;;;10165425;29;20047;-85
2023/01/28 11:00:21;;;;;;;0.73;0.60;;;;;;;;;;10175635;29;20044;-85
2023/01/28 11:05:27;;;;;;;1.00;0.70;;;;;;;;;;10187243;29;20512;-85
2023/01/28 11:10:34;;;;;;;0.68;0.68;;;;;;;;;;10184589;29;20051;-89
2023/01/28 11:15:47;;;;;;;0.60;0.60;;;;;;;;;;10183774;29;20044;-90
2023/01/28 11:20:53;;;;;;;0.85;0.60;;;;;;;;;;10197201;29;20071;-85
2023/01/28 11:26:02;;;;;;;;;;;;;;;;;;10172483;29;20058;-85
2023/01/28 11:31:06;;;;;;;1.00;0.90;;;;;;;;;;10191595;29;19927;-87
2023/01/28 11:36:21;;;;;;;0.98;0.77;;;;;;;;;;10185061;29;20119;-87
2023/01/28 11:41:29;;;;;;;0.60;0.60;;;;;;;;;;10211745;28;20035;-88
2023/01/28 11:46:53;;;;;;;0.68;0.60;;;;;;;;;;10189295;29;20110;-87
2023/01/28 11:52:03;;;;;;;0.60;0.60;;;;;;;;;;10170656;29;20139;-92
2023/01/28 11:57:26;;;;;;;1.83;0.63;;;;;;;;;;10172867;29;20050;-88
2023/01/28 12:02:46;;;;;;;0.60;0.60;;;;;;;;;;10171428;29;20066;-88
2023/01/28 12:07:57;;;;;;;0.50;0.50;;;;;;;;;;10195473;29;20040;-88
2023/01/28 12:13:15;;;;;;;0.55;0.55;;;;;;;;;;10175670;29;20059;-87
2023/01/28 12:18:32;;;;;;;0.75;0.63;;;;;;;;;;10187021;29;20066;-86
2023/01/28 12:23:52;;;;;;;0.60;0.60;;;;;;;;;;10179338;29;20044;-86
2023/01/28 12:29:16;;;;;;;0.55;0.50;;;;;;;;;;10175613;29;20040;-85
2023/01/28 12:34:48;;;;;;;0.77;0.75;;;;;;;;;;10196304;29;20051;-85
2023/01/28 12:40:05;;;;;;;1.77;0.70;;;;;;;;;;10187862;29;20048;-86
2023/01/28 12:45:17;;;;;;;0.60;0.60;;;;;;;;;;10198600;29;20126;-86
2023/01/28 12:50:25;;;;;;;0.65;0.65;;;;;;;;;;10173629;29;20035;-85
2023/01/28 12:55:39;;;;;;;0.85;0.85;;;;;;;;;;10172438;29;20051;-86
2023/01/28 13:00:48;;;;;;;1.20;0.70;;;;;;;;;;10179256;29;20043;-88
2023/01/28 13:05:55;;;;;;;3.00;0.80;;;;;;;;;;10167364;29;20127;-89
2023/01/28 13:11:01;;;;;;;2.08;0.60;;;;;;;;;;10166127;29;20050;-90
2023/01/28 13:16:08;;;;;;;1.33;1.00;;;;;;;;;;10174167;29;20138;-87
2023/01/28 13:21:16;;;;;;;0.60;0.60;;;;;;;;;;10170157;29;20489;-86
2023/01/28 13:26:36;;;;;;;0.60;0.60;;;;;;;;;;10178898;29;20051;-86
2023/01/28 13:31:43;;;;;;;0.80;0.80;;;;;;;;;;10160256;29;20143;-86
2023/01/28 13:36:48;;;;;;;1.10;1.00;;;;;;;;;;10154521;29;20663;-86
2023/01/28 13:41:53;;;;;;;0.70;0.70;;;;;;;;;;10167654;29;20441;-86
2023/01/28 13:47:03;;;;;;;1.27;0.93;;;;;;;;;;10182718;29;20130;-87
2023/01/28 13:52:13;;;;;;;0.75;0.60;;;;;;;;;;10173139;29;20580;-86
2023/01/28 13:57:41;;;;;;;0.70;0.70;;;;;;;;;;10179086;29;20067;-87
2023/01/28 14:03:17;;;;;;;0.75;0.75;;;;;;;;;;10154228;29;20044;-87
2023/01/28 14:08:54;;;;;;;0.80;0.80;;;;;;;;;;10159628;29;20047;-86
2023/01/28 14:14:50;;;;;;;0.77;0.75;;;;;;;;;;10154191;29;20043;-86
2023/01/28 14:19:57;;;;;;;0.70;0.70;;;;;;;;;;10169934;29;20039;-84
2023/01/28 14:25:02;;;;;;;2.28;0.90;;;;;;;;;;10158777;29;20051;-87
2023/01/28 14:30:16;;;;;;;1.02;0.85;;;;;;;;;;10160634;29;20521;-91
2023/01/28 14:35:27;;;;;;;1.92;1.20;;;;;;;;;;10162762;29;20641;-87
2023/01/28 14:40:31;;;;;;;1.15;1.00;;;;;;;;;;10164682;29;20472;-86
2023/01/28 14:46:07;;;;;;;0.70;0.70;;;;;;;;;;10161441;29;20130;-88
2023/01/28 14:51:36;;;;;;;1.70;1.10;;;;;;;;;;10174791;29;20052;-87
2023/01/28 14:56:56;;;;;;;1.40;0.90;;;;;;;;;;10152966;29;20079;-87
2023/01/28 15:02:00;;;;;;;1.30;0.82;;;;;;;;;;10171563;29;20047;-86
2023/01/28 15:07:17;;;;;;;1.90;1.20;;;;;;;;;;10162151;29;20044;-86
2023/01/28 15:12:21;;;;;;;0.90;0.90;;;;;;;;;;10162912;29;20076;-87
2023/01/28 15:17:27;;;;;;;1.58;1.00;;;;;;;;;;10163085;29;20071;-87
2023/01/28 15:22:33;;;;;;;0.80;0.70;;;;;;;;;;10170535;29;20126;-88
2023/01/28 15:27:37;;;;;;;2.40;0.90;;;;;;;;;;10196787;29;20504;-88
2023/01/28 15:32:40;;;;;;;0.90;0.90;;;;;;;;;;10181952;29;20052;-87
2023/01/28 15:37:48;;;;;;;0.93;0.80;;;;;;;;;;10209422;29;20083;-87
2023/01/28 15:42:52;;;;;;;1.23;0.93;;;;;;;;;;10207944;29;20051;-90
2023/01/28 15:48:05;;;;;;;2.28;1.70;;;;;;;;;;10172443;29;20127;-89
2023/01/28 15:53:12;;;;;;;2.95;1.80;;;;;;;;;;10194745;29;20119;-88
2023/01/28 15:58:28;;;;;;;2.33;1.90;;;;;;;;;;10177300;29;21038;-88
2023/01/28 16:03:33;;;;;;;1.80;1.23;;;;;;;;;;10187922;29;20059;-90
2023/01/28 16:08:42;;;;;;;1.40;1.30;;;;;;;;;;10190307;29;20520;-89
2023/01/28 16:13:45;;;;;;;1.40;1.00;;;;;;;;;;10168051;29;20119;-85
2023/01/28 16:18:54;;;;;;;1.58;1.27;;;;;;;;;;10172071;29;20509;-84
2023/01/28 16:24:04;;;;;;;3.47;1.20;;;;;;;;;;10149037;29;20050;-85
2023/01/28 16:29:15;;;;;;;2.15;1.23;;;;;;;;;;10173132;29;20069;-85
2023/01/28 16:34:19;;;;;;;2.83;1.73;;;;;;;;;;10183321;29;20761;-90
2023/01/28 16:39:24;;;;;;;2.30;1.48;;;;;;;;;;10196662;29;20199;-88
2023/01/28 16:44:27;;;;;;;1.48;1.25;;;;;;;;;;10197891;29;20060;-87
2023/01/28 16:49:31;;;;;;;1.48;1.10;;;;;;;;;;10212367;29;20044;-90
2023/01/28 16:54:36;;;;;;;1.02;0.90;;;;;;;;;;10194078;29;20046;-87
2023/01/28 16:59:39;;;;;;;1.88;1.30;;;;;;;;;;10211542;29;20055;-88
2023/01/28 17:04:44;;;;;;;2.30;1.40;;;;;;;;;;10190766;29;20448;-85
2023/01/28 17:09:51;;;;;;;2.45;1.88;;;;;;;;;;10178068;29;20051;-85
2023/01/28 17:14:54;;;;;;;5.38;3.05;;;;;;;;;;10176988;29;20048;-87
2023/01/28 17:19:58;;;;;;;6.05;3.08;;;;;;;;;;10168690;29;20063;-87
2023/01/28 17:25:03;;;;;;;3.40;2.60;;;;;;;;;;10186921;29;20043;-86
2023/01/28 17:30:07;;;;;;;6.13;2.75;;;;;;;;;;10196292;29;20066;-88
2023/01/28 17:35:13;;;;;;;3.97;2.42;;;;;;;;;;10161705;29;20055;-85
2023/01/28 17:40:19;;;;;;;5.13;2.83;;;;;;;;;;10159302;29;20048;-85
2023/01/28 17:45:23;;;;;;;5.43;3.92;;;;;;;;;;10160284;29;20493;-85
2023/01/28 17:50:26;;;;;;;3.63;2.80;;;;;;;;;;10176446;29;20058;-85
2023/01/28 17:55:34;;;;;;;6.18;3.05;;;;;;;;;;10162640;29;20462;-85
2023/01/28 18:00:38;;;;;;;6.05;3.85;;;;;;;;;;10164883;29;20127;-85
2023/01/28 18:05:42;;;;;;;3.80;2.55;;;;;;;;;;10183805;29;20079;-85
2023/01/28 18:10:47;;;;;;;2.55;1.80;;;;;;;;;;10180200;29;20047;-85
2023/01/28 18:15:52;;;;;;;3.65;2.45;;;;;;;;;;10185771;29;20047;-86
2023/01/28 18:20:59;;;;;;;4.70;2.70;;;;;;;;;;10217671;29;20043;-88
2023/01/28 18:26:06;;;;;;;7.95;4.35;;;;;;;;;;10205567;29;20044;-86
2023/01/28 18:31:09;;;;;;;6.07;4.10;;;;;;;;;;10190086;29;20095;-87
2023/01/28 18:36:13;;;;;;;7.07;3.35;;;;;;;;;;10195571;29;20054;-87
2023/01/28 18:41:18;;;;;;;5.63;3.30;;;;;;;;;;10197033;29;20580;-88
2023/01/28 18:46:22;;;;;;;4.05;2.78;;;;;;;;;;10194410;29;20046;-87
2023/01/28 18:51:26;;;;;;;5.57;3.10;;;;;;;;;;10189536;29;20064;-85
2023/01/28 18:56:34;;;;;;;2.10;1.85;;;;;;;;;;10187930;29;20040;-85
2023/01/28 19:01:39;;;;;;;1.77;1.55;;;;;;;;;;10191208;29;20048;-86
2023/01/28 19:06:43;;;;;;;1.90;1.63;;;;;;;;;;10171641;29;20052;-85
2023/01/28 19:11:49;;;;;;;2.05;1.67;;;;;;;;;;10192914;29;20044;-89
2023/01/28 19:16:57;;;;;;;1.65;1.55;;;;;;;;;;10207264;28;20047;-87
2023/01/28 19:22:01;;;;;;;2.22;1.80;;;;;;;;;;10150934;29;20123;-79
2023/01/28 19:27:06;;;;;;;2.20;1.73;;;;;;;;;;10138174;29;20036;-79
2023/01/28 19:32:09;;;;;;;2.53;1.70;;;;;;;;;;10129729;29;20063;-80
2023/01/28 19:37:13;;;;;;;2.88;1.60;;;;;;;;;;10115291;29;20051;-80
2023/01/28 19:42:17;;;;;;;2.22;1.73;;;;;;;;;;10119615;29;20394;-80
2023/01/28 19:47:21;;;;;;;2.58;1.70;;;;;;;;;;10134761;29;20040;-79
2023/01/28 19:52:24;;;;;;;2.53;1.80;;;;;;;;;;10124415;29;20476;-80
2023/01/28 19:57:29;;;;;;;2.80;2.22;;;;;;;;;;10111759;29;20646;-80
2023/01/28 20:02:32;;;;;;;5.70;4.10;;;;;;;;;;10100921;29;20104;-82
2023/01/28 20:07:36;;;;;;;4.13;3.00;;;;;;;;;;10101361;29;20044;-82
2023/01/28 20:12:41;;;;;;;3.92;2.72;;;;;;;;;;10122300;29;20108;-81
2023/01/28 20:17:44;;;;;;;4.38;2.85;;;;;;;;;;10122196;29;20044;-82
2023/01/28 20:22:48;;;;;;;3.03;2.47;;;;;;;;;;10139020;29;20044;-82
2023/01/28 20:27:52;;;;;;;4.45;2.85;;;;;;;;;;10122869;29;20044;-82
2023/01/28 20:32:56;;;;;;;3.10;2.10;;;;;;;;;;10128483;29;20564;-82
2023/01/28 20:38:02;;;;;;;2.20;2.00;;;;;;;;;;10115673;29;20051;-81
2023/01/28 20:43:07;;;;;;;3.03;2.33;;;;;;;;;;10106245;29;20048;-81
2023/01/28 20:48:11;;;;;;;2.50;2.15;;;;;;;;;;10107305;29;20045;-82
2023/01/28 20:53:14;;;;;;;2.08;1.88;;;;;;;;;;10128854;29;20067;-82
2023/01/28 20:58:19;;;;;;;2.42;2.22;;;;;;;;;;10138504;29;20048;-81
2023/01/28 21:03:22;;;;;;;1.83;1.73;;;;;;;;;;10117211;29;20055;-81
2023/01/28 21:08:26;;;;;;;2.75;2.20;;;;;;;;;;10122654;29;20044;-80
2023/01/28 21:13:31;;;;;;;2.72;2.15;;;;;;;;;;10108308;29;20056;-81
2023/01/28 21:18:34;;;;;;;4.15;2.95;;;;;;;;;;10113293;29;20179;-81
2023/01/28 21:23:37;;;;;;;5.97;3.80;;;;;;;;;;10119304;29;20047;-80
2023/01/28 21:28:42;;;;;;;3.30;2.42;;;;;;;;;;10137543;29;20079;-80
2023/01/28 21:33:48;;;;;;;3.83;2.22;;;;;;;;;;10129481;29;20044;-80
2023/01/28 21:38:52;;;;;;;2.53;2.00;;;;;;;;;;10122732;29;20048;-81
2023/01/28 21:43:57;;;;;;;3.08;2.15;;;;;;;;;;10113162;29;20048;-81
2023/01/28 21:49:03;;;;;;;3.55;2.38;;;;;;;;;;10116456;29;20051;-81
2023/01/28 21:54:11;;;;;;;2.67;2.00;;;;;;;;;;10111366;29;20044;-81
2023/01/28 21:59:31;;;;;;;2.42;2.08;;;;;;;;;;10135298;29;20048;-81
2023/01/28 22:04:36;;;;;;;3.03;2.42;;;;;;;;;;10118032;29;20074;-81
2023/01/28 22:09:41;;;;;;;6.22;3.97;;;;;;;;;;10111560;29;20059;-82
2023/01/28 22:14:55;;;;;;;6.38;3.90;;;;;;;;;;10101609;29;20052;-81
2023/01/28 22:19:59;;;;;;;12.57;6.20;;;;;;;;;;10107401;29;20048;-81
2023/01/28 22:25:03;;;;;;;19.40;7.90;;;;;;;;;;10146377;29;20055;-82
2023/01/28 22:30:09;;;;;;;11.05;5.75;;;;;;;;;;10153957;29;20046;-81
2023/01/28 22:35:13;;;;;;;6.45;4.47;;;;;;;;;;10148872;29;20097;-80
2023/01/28 22:40:16;;;;;;;7.82;5.90;;;;;;;;;;10156381;29;20299;-81
2023/01/28 22:45:21;;;;;;;5.03;4.00;;;;;;;;;;10135557;29;20090;-82
2023/01/28 22:50:25;;;;;;;5.50;4.32;;;;;;;;;;10124087;29;20075;-81
2023/01/28 22:55:28;;;;;;;6.13;4.20;;;;;;;;;;10146537;29;20047;-81
2023/01/28 23:00:33;;;;;;;6.07;3.88;;;;;;;;;;10139318;29;20040;-81
2023/01/28 23:05:37;;;;;;;3.97;2.90;;;;;;;;;;10119762;29;20043;-82
2023/01/28 23:10:48;;;;;;;3.28;2.83;;;;;;;;;;10114792;29;20052;-82
2023/01/28 23:26:41;;;;;;;3.95;2.85;;;;;;;;;;10129210;29;20139;-83
2023/01/28 23:31:47;;;;;;;3.97;3.20;;;;;;;;;;10165643;29;20048;-82
2023/01/28 23:36:51;;;;;;;;;;;;;;;;;;10155297;29;20051;-82
2023/01/28 23:41:54;;;;;;;4.13;2.63;;;;;;;;;;10164429;29;20516;-82
2023/01/28 23:46:58;;;;;;;3.63;3.20;;;;;;;;;;10133764;29;20041;-82
2023/01/28 23:52:03;;;;;;;4.07;3.03;;;;;;;;;;10117848;29;20048;-84
2023/01/28 23:57:07;;;;;;;4.50;2.97;;;;;;;;;;10131904;29;20048;-82
